Main page
METAR-TAF:

METAR-TAF

Airports :

Lydd Airport

Lydd, England

latitude: 50-57N, longitude: 000-56E, elevation: 3 m

Current weather observation

The report was made 25 minutes ago, at 19:20 UTC
Wind 11 kt from the South
Temperature 17°C
Humidity 82%
Pressure 1010 hPa
Visibility 10 km or more

METAR: EGMD 251920Z AUTO 17011KT 9999 FEW030/// SCT035/// BKN041/// 17/14 Q1010

Time: 20:45 (19:45 UTC)

Forecast

The report was made 2 hours and 45 minutes ago, at 17:00 UTC
Forecast valid from 25 at 18 UTC to 26 at 03 UTC
Wind 10 kt from the South/Southwest
Visibility 10 km or more
Few clouds at a height of 4500 ft
Probability 30% :
Temporary
from 25 at 18 UTC to 26 at 02 UTC
Visibility: 8000 m
rain

TAF: EGMD 251700Z 2518/2603 20010KT 9999 FEW045 PROB30 TEMPO 2518/2602 8000 RA

Weather observations and forecasts of more than 4000 airports (METAR and TAF reports).

The available stations are represented by yellow and red dots on the map.

Hover mouse over dot to see the name of the station.

Then click to see weather observations and forecasts.

To change the map : click on the green buttons with a black cross to zoom in, on the green button with a dash to zoom out, or on the green arrows for adjacent maps.


METAR-TAF: